createdAt,value
2023-01-19T08:54:18.842Z,-1.55
2023-01-19T09:01:09.485Z,-1.46
2023-01-19T09:08:36.288Z,-0.87
2023-01-19T09:16:17.544Z,-0.99
2023-01-19T09:24:45.702Z,-0.82
2023-01-19T09:32:49.834Z,-0.62
2023-01-19T09:35:52.955Z,-0.42
2023-01-19T09:38:55.364Z,-0.24
2023-01-19T09:42:07.632Z,0.03
2023-01-19T09:45:17.694Z,0.11
2023-01-19T09:48:31.416Z,0.27
2023-01-19T09:51:37.295Z,0.42
2023-01-19T09:54:47.250Z,0.78
2023-01-19T09:57:49.956Z,1.08
2023-01-19T10:00:59.585Z,1.17
2023-01-19T10:04:35.459Z,1.48
2023-01-19T10:07:54.558Z,1.47
2023-01-19T10:10:59.026Z,1.53
2023-01-19T10:14:02.140Z,1.46
2023-01-19T10:17:15.012Z,1.38
2023-01-19T10:20:27.118Z,1.81
2023-01-19T10:23:41.280Z,2.11
2023-01-19T10:26:46.496Z,2.14
2023-01-19T10:29:49.115Z,2.21
2023-01-19T10:32:52.591Z,2.16
2023-01-19T10:35:56.483Z,2.24
2023-01-19T10:38:59.054Z,2.43
2023-01-19T10:42:03.660Z,2.62
2023-01-19T10:45:16.490Z,2.85
2023-01-19T10:48:18.978Z,2.75
2023-01-19T10:51:23.360Z,2.92
2023-01-19T10:54:27.601Z,3.27
2023-01-19T10:57:32.608Z,3.18
2023-01-19T11:00:37.999Z,3.10
2023-01-19T11:03:40.606Z,3.22
2023-01-19T11:06:44.373Z,3.32
2023-01-19T11:09:47.269Z,3.08
2023-01-19T11:12:58.008Z,3.23
2023-01-19T11:16:06.532Z,3.37
2023-01-19T11:19:20.282Z,3.14
2023-01-19T11:22:28.925Z,2.97
2023-01-19T11:25:34.468Z,3.10
2023-01-19T11:28:43.618Z,3.22
2023-01-19T11:31:47.675Z,3.22
2023-01-19T11:34:50.698Z,3.38
2023-01-19T11:38:06.435Z,3.30
2023-01-19T11:41:16.662Z,3.22
2023-01-19T11:44:23.153Z,3.12
2023-01-19T11:47:28.604Z,2.89
2023-01-19T11:50:35.667Z,2.83
2023-01-19T11:53:39.792Z,2.75
2023-01-19T11:56:43.591Z,2.62
2023-01-19T11:59:51.996Z,2.37
2023-01-19T12:02:59.743Z,2.21
2023-01-19T12:06:07.697Z,2.24
2023-01-19T12:09:19.143Z,2.32
2023-01-19T12:12:28.218Z,2.51
2023-01-19T12:15:36.847Z,2.47
2023-01-19T12:18:42.878Z,2.22
2023-01-19T12:21:48.144Z,2.24
2023-01-19T12:24:56.009Z,2.31
2023-01-19T12:27:59.149Z,2.21
2023-01-19T12:31:02.785Z,2.27
2023-01-19T12:34:31.246Z,2.37
2023-01-19T12:37:38.408Z,2.32
2023-01-19T12:40:42.317Z,2.39
2023-01-19T12:43:44.774Z,2.32
2023-01-19T12:46:50.137Z,2.31
2023-01-19T12:49:56.314Z,2.48
2023-01-19T12:53:02.686Z,2.48
2023-01-19T12:56:10.034Z,2.56
2023-01-19T12:59:25.513Z,2.61
2023-01-19T13:02:53.391Z,2.46
2023-01-19T13:05:57.126Z,2.46
2023-01-19T13:09:01.653Z,2.58
2023-01-19T13:12:24.454Z,2.76
2023-01-19T13:15:29.871Z,2.82
2023-01-19T13:18:35.866Z,2.84
2023-01-19T13:21:44.641Z,2.75
2023-01-19T13:25:13.134Z,2.77
2023-01-19T13:28:19.136Z,2.82
2023-01-19T13:31:22.914Z,2.73
2023-01-19T13:34:27.715Z,2.56
2023-01-19T13:37:36.416Z,2.77
2023-01-19T13:40:39.961Z,2.76
2023-01-19T13:43:44.462Z,2.69
2023-01-19T13:46:47.824Z,2.66
2023-01-19T13:49:56.507Z,2.73
2023-01-19T13:52:59.673Z,2.67
2023-01-19T13:56:11.035Z,2.77
2023-01-19T13:59:14.794Z,2.80
2023-01-19T14:02:17.581Z,2.83
2023-01-19T14:05:23.255Z,2.77
2023-01-19T14:08:26.383Z,2.73
2023-01-19T14:11:30.009Z,2.57
2023-01-19T14:14:39.140Z,2.42
2023-01-19T14:17:42.571Z,2.35
2023-01-19T14:20:54.287Z,2.17
2023-01-19T14:24:08.354Z,2.20
2023-01-19T14:27:19.805Z,1.98
2023-01-19T14:30:25.117Z,1.93
2023-01-19T14:33:35.899Z,1.85
2023-01-19T14:36:40.873Z,1.71
2023-01-19T14:39:47.161Z,1.65
2023-01-19T14:42:52.783Z,1.52
2023-01-19T14:45:57.695Z,1.43
2023-01-19T14:49:03.881Z,1.34
2023-01-19T14:52:18.313Z,1.24
2023-01-19T14:55:24.974Z,1.28
2023-01-19T14:58:31.160Z,1.18
2023-01-19T15:01:36.139Z,1.17
2023-01-19T15:04:38.721Z,1.05
2023-01-19T15:07:44.476Z,1.04
2023-01-19T15:10:47.383Z,0.93
2023-01-19T15:13:50.891Z,0.88
2023-01-19T15:16:55.173Z,0.86
2023-01-19T15:19:57.880Z,0.77
2023-01-19T15:23:00.477Z,0.74
2023-01-19T15:26:05.457Z,0.85
2023-01-19T15:29:18.917Z,0.84
2023-01-19T15:32:22.865Z,0.76
2023-01-19T15:35:26.004Z,0.75
2023-01-19T15:38:28.650Z,0.77
2023-01-19T15:41:31.856Z,0.83
2023-01-19T15:44:34.394Z,0.75
2023-01-19T15:47:38.262Z,0.65
2023-01-19T15:50:42.142Z,0.64
2023-01-19T15:53:45.388Z,0.69
2023-01-19T15:56:48.322Z,0.71
2023-01-19T15:59:51.483Z,0.65
2023-01-19T16:02:55.404Z,0.61
2023-01-19T16:06:00.943Z,0.61
2023-01-19T16:09:03.970Z,0.53
2023-01-19T16:12:07.048Z,0.53
2023-01-19T16:15:10.832Z,0.45
2023-01-19T16:18:15.101Z,0.47
2023-01-19T16:21:17.727Z,0.47
2023-01-19T16:24:20.347Z,0.51
2023-01-19T16:27:23.221Z,0.45
2023-01-19T16:30:25.776Z,0.48
2023-01-19T16:33:29.774Z,0.46
2023-01-19T16:36:33.793Z,0.43
2023-01-19T16:39:36.412Z,0.35
2023-01-19T16:42:39.737Z,0.33
2023-01-19T16:45:58.143Z,0.35
2023-01-19T16:49:03.436Z,0.34
2023-01-19T16:52:06.171Z,0.40
2023-01-19T16:55:11.157Z,0.41
2023-01-19T16:58:13.847Z,0.44
2023-01-19T17:01:20.296Z,0.53
2023-01-19T17:04:24.395Z,0.56
2023-01-19T17:07:27.257Z,0.60
2023-01-19T17:10:29.855Z,0.64
2023-01-19T17:13:32.463Z,0.72
2023-01-19T17:16:36.212Z,0.69
2023-01-19T17:19:40.793Z,0.72
2023-01-19T17:22:43.385Z,0.70
2023-01-19T17:25:53.118Z,0.84
2023-01-19T17:28:59.578Z,0.82
2023-01-19T17:32:02.110Z,0.76
2023-01-19T17:35:06.864Z,0.74
2023-01-19T17:38:09.518Z,0.82
2023-01-19T17:41:14.475Z,0.92
2023-01-19T17:44:17.013Z,0.93
2023-01-19T17:47:24.652Z,0.97
2023-01-19T17:50:28.502Z,0.97
2023-01-19T17:53:31.028Z,1.00
2023-01-19T17:56:37.407Z,0.97
2023-01-19T17:59:43.007Z,0.97
2023-01-19T18:02:45.837Z,0.97
2023-01-19T18:05:55.631Z,1.03
2023-01-19T18:08:59.240Z,0.96
2023-01-19T18:12:01.862Z,1.01
2023-01-19T18:15:04.888Z,0.96
2023-01-19T18:18:07.586Z,0.88
2023-01-19T18:21:13.312Z,0.95
2023-01-19T18:24:15.849Z,0.94
2023-01-19T18:27:18.519Z,0.94
2023-01-19T18:30:22.410Z,0.93
2023-01-19T18:33:25.354Z,0.93
2023-01-19T18:36:31.930Z,0.87
2023-01-19T18:39:34.758Z,0.82
2023-01-19T18:42:37.422Z,0.80
2023-01-19T18:45:42.069Z,0.85
2023-01-19T18:48:44.692Z,0.80
2023-01-19T18:51:48.583Z,0.95
2023-01-19T18:54:51.195Z,0.95
2023-01-19T18:57:53.892Z,0.93
2023-01-19T19:00:57.352Z,0.98
2023-01-19T19:04:00.049Z,1.00
2023-01-19T19:07:04.197Z,1.13
2023-01-19T19:10:08.016Z,1.11
2023-01-19T19:13:12.924Z,1.10
2023-01-19T19:16:15.556Z,1.10
2023-01-19T19:19:19.077Z,1.12
2023-01-19T19:22:25.446Z,1.11
2023-01-19T19:25:28.317Z,1.12
2023-01-19T19:28:30.953Z,1.14
2023-01-19T19:31:33.753Z,1.14
2023-01-19T19:34:36.416Z,1.17
2023-01-19T19:37:40.385Z,1.31
2023-01-19T19:40:42.988Z,1.24
2023-01-19T19:43:45.964Z,1.24
2023-01-19T19:46:48.617Z,1.35
2023-01-19T19:49:51.231Z,1.36
2023-01-19T19:52:58.692Z,1.49
2023-01-19T19:56:03.935Z,1.55
2023-01-19T19:59:06.699Z,1.48
2023-01-19T20:02:12.451Z,1.58
2023-01-19T20:05:14.988Z,1.58
2023-01-19T20:08:19.984Z,1.58
2023-01-19T20:11:42.938Z,1.62
2023-01-19T20:14:45.447Z,1.55
2023-01-19T20:17:48.109Z,1.55
2023-01-19T20:20:50.736Z,1.57
2023-01-19T20:23:56.030Z,1.66
2023-01-19T20:26:58.697Z,1.63
2023-01-19T20:30:01.683Z,1.71
2023-01-19T20:33:04.413Z,1.59
2023-01-19T20:36:07.637Z,1.55
2023-01-19T20:39:12.695Z,1.60
2023-01-19T20:42:16.491Z,1.55
2023-01-19T20:45:20.557Z,1.63
2023-01-19T20:48:23.231Z,1.55
2023-01-19T20:51:26.873Z,1.60
2023-01-19T20:54:30.907Z,1.66
2023-01-19T20:57:33.519Z,1.60
2023-01-19T21:00:44.177Z,1.66
2023-01-19T21:03:58.310Z,1.58
2023-01-19T21:07:00.983Z,1.72
2023-01-19T21:10:05.834Z,1.76
2023-01-19T21:13:23.334Z,1.78
2023-01-19T21:16:47.455Z,1.86
2023-01-19T21:20:38.018Z,1.83
2023-01-19T22:55:33.495Z,2.15
2023-01-19T22:59:46.893Z,2.19
2023-01-19T23:03:52.030Z,2.24
2023-01-19T23:12:16.727Z,2.28
2023-01-19T23:15:57.939Z,2.19
